Hovedside
METAR-TAF:

METAR-TAF

Lufthavner :

Heidrun, Norge

Heidrunfeltet

breddegrad: 65-19-30N, lengdegrad: 007-19-36E, høyde over havet: 0 m

Gjeldene værobservasjon

Denne rapporten ble laget for 38 minutter siden, klokken 11:20 UTC
Vind 16 kt fra Øst-sørøst
Temperatur 8°C
Luftfuktighet 81%
Trykk 1012 hPa
Sikt 10 km eller mer
ingen skyer under 1500 m og ingen bygeskyer

METAR: ENHE 221120Z 11016KT CAVOK 08/05 Q1012 W///S4

Tid: 13:58 (11:58 UTC)

Varsel

Denne rapporten ble laget for 58 minutter siden, klokken 11:00 UTC
Varsel gyldig fra 22. klokken 12 UTC til 22. klokken 21 UTC
Vind 18 kt fra Øst-sørøst
Sikt 10 km eller mer
ingen skyer under 1500 m og ingen bygeskyer

TAF: ENHE 221100Z 2212/2221 11018KT CAVOK

Værobservasjoner og værvarsel for over 4000 flyplasser (METAR- og TAF-rapporter).

Tilgjengelige stasjoner er representert av de røde og gule prikkene på kartet.

Hold musepekeren over prikken for å se navnet på stasjonen.

Klikk så for å se værobservasjoner og -varsler.

For å forandre kartet kan du klikke på den grønne knappen med svart kryss for å zoome inn, på den grønne knappen med strek for å zoome ut, eller på de grønne pilene for å se tilstøtende kart.


METAR-TAF: